METAR Data
IDs: Format: Raw Decoded Include TAF

Data at: 0213 UTC 26 Apr 2019

PAAQ 260153Z AUTO 15010KT 10SM CLR 10/M07 A3005 RMK AO2 SLP178 T01001072 TSNO
PAAQ 260053Z 09007KT 10SM CLR 11/M09 A3005 RMK AO2 SLP177 T01061094
PAAQ 252353Z 12005KT 10SM CLR 10/M11 A3004 RMK AO2 SLP176 T01001111 10106 20056 56003
PAAQ 252253Z 04008G14KT 020V080 10SM CLR 10/M11 A3005 RMK AO2 SLP177 T01001106
PAAQ 252153Z 16006KT 10SM CLR 09/M09 A3005 RMK AO2 SLP179 T00891094
PAAQ 252053Z 13006KT 10SM CLR 09/M09 A3005 RMK AO2 SLP180 T00891089 58003
PAAQ 251953Z 04015KT 10SM CLR 08/M09 A3006 RMK AO2 SLP184 T00781094
PAAQ 251853Z 18003KT 10SM CLR 07/M07 A3006 RMK AO2 SLP182 T00671072
PAAQ 251753Z 03016G23KT 10SM CLR 06/M11 A3006 RMK AO2 PK WND 03027/1742 SLP184 T00561106 10056 21017 58002
PAAQ 251653Z 00000KT 10SM CLR 04/M06 A3007 RMK AO2 PK WND 03027/1631 SLP186 T00391061
PAAQ 251553Z AUTO 00000KT 10SM CLR 03/M07 A3007 RMK AO2 SLP186 T00281067 TSNO
PAAQ 251453Z AUTO 00000KT 10SM CLR 00/M07 A3007 RMK AO2 SLP186 T00001067 56004 TSNO
PAAQ 251353Z AUTO 00000KT 10SM CLR M01/M07 A3007 RMK AO2 SLP186 T10061072 TSNO
PAAQ 251253Z AUTO 00000KT 10SM CLR 01/M07 A3007 RMK AO2 SLP188 T00061067 TSNO
PAAQ 251153Z AUTO 00000KT 10SM CLR 01/M08 A3008 RMK AO2 SLP190 T00111078 10028 21011 50002 TSNO
PAAQ 251053Z AUTO VRB03KT 10SM CLR 02/M09 A3009 RMK AO2 SLP192 T00171094 TSNO
PAAQ 250953Z AUTO 01005KT 10SM CLR 01/M08 A3008 RMK AO2 SLP190 T00061078 TSNO
PAAQ 250853Z AUTO 36005KT 10SM CLR M01/M06 A3007 RMK AO2 SLP188 T10061061 400781039 58000 TSNO
PAAQ 250753Z AUTO 08005KT 10SM CLR 02/M07 A3008 RMK AO2 SLP190 T00221072 TSNO
PAAQ 250653Z AUTO 05003KT 10SM CLR 02/M08 A3008 RMK AO2 SLP190 T00171078 TSNO
PAAQ 250553Z AUTO 14009KT 10SM CLR 03/M08 A3008 RMK AO2 SLP188 T00281078 10078 20028 55000 TSNO
PAAQ 250453Z AUTO 13009KT 10SM CLR 04/M08 A3006 RMK AO2 SLP184 T00391078 TSNO
PAAQ 250353Z AUTO 13011KT 10SM CLR 05/M08 A3006 RMK AO2 SLP184 T00501083 TSNO
PAAQ 250253Z AUTO 14012G24KT 10SM CLR 06/M08 A3008 RMK AO2 PK WND 13026/0226 SLP189 T00611078 53005 TSNO
PAAQ 250153Z AUTO 13016KT 10SM CLR 07/M08 A3007 RMK AO2 SLP186 T00671078 TSNO
PAAQ 250053Z 13016G26KT 10SM CLR 07/M08 A3006 RMK AO2 PK WND 14026/0051 SLP185 T00721078
PAAQ 242353Z 14015KT 10SM CLR 07/M08 A3006 RMK AO2 SLP184 T00721083 10078 20011 55004
PAAQ 242253Z 14014KT 10SM CLR 07/M08 A3006 RMK AO2 SLP183 T00721083
PAAQ 242153Z 14014G21KT 10SM CLR 07/M08 A3007 RMK AO2 SLP186 T00721083
PAAQ 242053Z 13010KT 10SM CLR 06/M06 A3007 RMK AO2 SLP187 T00611056 50005
PAAQ 241953Z VRB06KT 10SM FEW042 06/M05 A3007 RMK AO2 SLP188 T00561050
PAAQ 241853Z 12010KT 10SM CLR 03/M06 A3007 RMK AO2 SLP185 T00331056
PAAQ 241753Z 12004KT 10SM CLR 01/M06 A3006 RMK AO2 SLP182 T00111056 10011 21039 51008
PAAQ 241653Z 36005KT 10SM CLR 00/M05 A3005 RMK AO2 SLP181 T00001050
PAAQ 241553Z AUTO 35006KT 10SM CLR M02/M05 A3004 RMK AO2 SLP178 T10221050 TSNO
PAAQ 241453Z AUTO 35006KT 10SM CLR M04/M06 A3003 RMK AO2 SLP174 T10391056 51007 TSNO